Time;durP1;ratioP1;P1;durP2;ratioP2;P2;SDS_P1;SDS_P2;PMS_P1;PMS_P2;Temp;Humidity;BMP_temperature;BMP_pressure;BME280_temperature;BME280_humidity;BME280_pressure;Samples;Min_cycle;Max_cycle;Signal;HPM_P1;HPM_P2
2023/10/15 00:00:40;;;;;;;7.28;1.40;;;7.70;99.90;;;;;;4967377;28;20135;-41
2023/10/15 00:03:07;;;;;;;3.47;1.60;;;7.70;99.90;;;;;;4983981;28;20583;-41
2023/10/15 00:05:33;;;;;;;7.28;1.35;;;7.70;99.90;;;;;;5001427;28;20492;-44
2023/10/15 00:07:58;;;;;;;9.27;1.75;;;7.70;99.90;;;;;;4983915;28;20134;-43
2023/10/15 00:10:26;;;;;;;8.30;2.00;;;7.70;99.90;;;;;;4983137;28;20367;-42
2023/10/15 00:12:53;;;;;;;10.18;1.10;;;7.70;99.90;;;;;;5001435;28;20438;-43
2023/10/15 00:15:20;;;;;;;6.90;1.45;;;7.70;99.90;;;;;;4983190;28;20049;-41
2023/10/15 00:17:50;;;;;;;12.00;1.85;;;7.70;99.90;;;;;;4983502;28;20314;-44
2023/10/15 00:20:17;;;;;;;4.53;1.13;;;7.70;99.90;;;;;;4998832;28;20077;-42
2023/10/15 00:22:48;;;;;;;5.50;1.52;;;7.60;99.90;;;;;;5001485;28;20058;-42
2023/10/15 00:25:14;;;;;;;6.55;1.35;;;7.70;99.90;;;;;;4999314;28;20045;-42
2023/10/15 00:27:41;;;;;;;8.48;1.35;;;7.70;99.90;;;;;;4983090;28;20214;-42
2023/10/15 00:30:15;;;;;;;7.65;1.20;;;7.70;99.90;;;;;;4966618;28;20513;-42
2023/10/15 00:32:45;;;;;;;6.05;1.13;;;7.80;99.90;;;;;;4983408;28;20532;-42
2023/10/15 00:35:12;;;;;;;4.03;1.05;;;7.80;99.90;;;;;;5000879;28;20444;-45
2023/10/15 00:37:40;;;;;;;6.13;1.38;;;7.80;99.90;;;;;;4995006;28;20053;-42
2023/10/15 00:40:18;;;;;;;8.15;1.60;;;7.80;99.90;;;;;;4982299;28;20115;-41
2023/10/15 00:42:47;;;;;;;10.25;1.75;;;7.80;99.90;;;;;;4983598;28;20046;-43
2023/10/15 00:45:19;;;;;;;9.07;1.55;;;7.80;99.90;;;;;;5000834;28;20100;-42
2023/10/15 00:48:11;;;;;;;8.63;2.08;;;7.80;99.90;;;;;;4983204;28;20386;-41
2023/10/15 00:50:55;;;;;;;7.95;1.60;;;7.70;99.90;;;;;;4999576;28;20063;-41
2023/10/15 00:53:24;;;;;;;8.05;1.30;;;7.70;99.90;;;;;;4989780;28;20056;-42
2023/10/15 00:55:52;;;;;;;7.45;1.17;;;7.70;99.90;;;;;;5000745;28;20054;-41
2023/10/15 01:03:53;;;;;;;9.55;1.77;;;7.70;99.90;;;;;;5001232;28;20050;-41
2023/10/15 01:06:30;;;;;;;10.20;2.25;;;7.70;99.90;;;;;;4989355;28;20049;-42
2023/10/15 01:09:08;;;;;;;7.35;1.60;;;7.70;99.90;;;;;;5000670;28;20134;-42
2023/10/15 01:11:36;;;;;;;6.85;1.50;;;7.70;99.90;;;;;;5000824;28;20489;-42
2023/10/15 01:14:01;;;;;;;10.88;2.03;;;7.50;99.90;;;;;;4982912;28;20085;-43
2023/10/15 01:16:31;;;;;;;8.70;2.03;;;7.50;99.90;;;;;;5000267;28;20141;-43
2023/10/15 01:19:14;;;;;;;8.43;2.10;;;7.40;99.90;;;;;;4982268;28;20481;-41
2023/10/15 01:22:10;;;;;;;11.55;2.28;;;7.30;99.90;;;;;;4983302;28;20468;-43
2023/10/15 01:24:38;;;;;;;9.63;2.30;;;7.20;99.90;;;;;;4982720;28;20049;-43
2023/10/15 01:29:35;;;;;;;9.20;1.83;;;7.10;99.90;;;;;;4982856;28;20520;-42
2023/10/15 01:32:10;;;;;;;7.72;1.77;;;7.00;99.90;;;;;;5000542;28;20038;-41
2023/10/15 01:34:37;;;;;;;10.73;1.63;;;6.90;99.90;;;;;;4982688;28;20056;-41
2023/10/15 01:39:51;;;;;;;11.30;2.75;;;6.80;99.90;;;;;;4978787;28;20461;-44
2023/10/15 01:50:24;;;;;;;6.25;1.60;;;6.60;99.90;;;;;;4999486;28;20104;-42
2023/10/15 01:52:54;;;;;;;7.43;1.40;;;6.50;99.90;;;;;;4982674;28;20045;-41
2023/10/15 01:55:21;;;;;;;8.57;1.60;;;6.50;99.90;;;;;;5000115;28;20407;-41
2023/10/15 01:57:49;;;;;;;5.43;1.52;;;6.40;99.90;;;;;;4999523;28;20037;-42
2023/10/15 02:00:33;;;;;;;8.35;1.80;;;6.40;99.90;;;;;;4981536;28;20052;-42
2023/10/15 02:03:00;;;;;;;8.07;1.50;;;6.40;99.90;;;;;;4988966;28;20081;-42
2023/10/15 02:05:29;;;;;;;9.95;1.55;;;6.40;99.90;;;;;;4966164;28;20042;-42
2023/10/15 02:07:56;;;;;;;4.38;1.80;;;6.40;99.90;;;;;;4982482;28;20053;-41
2023/10/15 02:10:23;;;;;;;5.45;1.52;;;6.40;99.90;;;;;;4999608;28;20049;-41
2023/10/15 02:12:59;;;;;;;9.02;2.03;;;6.40;99.90;;;;;;5000372;28;20046;-42
2023/10/15 02:15:31;;;;;;;10.65;1.25;;;6.40;99.90;;;;;;5000602;28;20375;-42
2023/10/15 02:17:59;;;;;;;4.95;1.25;;;6.40;99.90;;;;;;5002019;28;20531;-42
2023/10/15 02:23:10;;;;;;;5.45;1.10;;;6.50;99.90;;;;;;5003831;28;20046;-43
2023/10/15 02:25:41;;;;;;;7.40;1.52;;;6.40;99.90;;;;;;4985998;28;20084;-43
2023/10/15 02:28:10;;;;;;;3.80;1.27;;;6.40;99.90;;;;;;5003735;28;20085;-41
2023/10/15 02:30:35;;;;;;;6.18;1.00;;;6.40;99.90;;;;;;4985951;28;20053;-46
2023/10/15 02:33:01;;;;;;;10.07;1.45;;;6.40;99.90;;;;;;5003685;28;20371;-43
2023/10/15 02:35:32;;;;;;;6.85;1.20;;;6.40;99.90;;;;;;4986067;28;20045;-43
2023/10/15 02:37:59;;;;;;;4.82;1.30;;;6.30;99.90;;;;;;4995223;28;20034;-44
2023/10/15 02:40:35;;;;;;;4.47;1.40;;;6.30;99.90;;;;;;5002770;28;20100;-42
2023/10/15 02:43:06;;;;;;;4.15;0.95;;;6.30;99.90;;;;;;4985266;28;20068;-41
2023/10/15 02:45:43;;;;;;;4.00;1.35;;;6.20;99.90;;;;;;5002904;28;20077;-44
2023/10/15 02:48:19;;;;;;;4.85;1.25;;;6.20;99.90;;;;;;5002600;28;20104;-44
2023/10/15 02:51:01;;;;;;;5.38;1.10;;;6.20;99.90;;;;;;4984725;28;20168;-44
2023/10/15 02:53:33;;;;;;;7.38;1.25;;;6.20;99.90;;;;;;5002882;28;20049;-43
2023/10/15 02:55:59;;;;;;;4.30;1.23;;;6.20;99.90;;;;;;5003247;28;20054;-43
2023/10/15 02:58:28;;;;;;;5.30;1.27;;;6.10;99.90;;;;;;4985453;28;20042;-41
2023/10/15 03:00:59;;;;;;;7.30;1.63;;;6.10;99.90;;;;;;4984716;28;20173;-42
2023/10/15 03:03:34;;;;;;;5.80;1.15;;;6.10;99.90;;;;;;4985415;28;20213;-42
2023/10/15 03:06:01;;;;;;;9.10;1.13;;;6.10;99.90;;;;;;4985127;28;20267;-43
2023/10/15 03:08:36;;;;;;;7.22;1.10;;;6.10;99.90;;;;;;5001652;28;20455;-41
2023/10/15 03:11:07;;;;;;;4.68;0.98;;;6.10;99.90;;;;;;4968421;28;20575;-41
2023/10/15 03:13:33;;;;;;;5.53;1.17;;;6.10;99.90;;;;;;5002853;28;20065;-43
2023/10/15 03:16:07;;;;;;;6.63;1.10;;;6.10;99.90;;;;;;5003004;28;20041;-41
2023/10/15 03:18:34;;;;;;;;;;;6.10;99.90;;;;;;5002861;28;20050;-41
2023/10/15 03:21:16;;;;;;;3.47;0.98;;;6.00;99.90;;;;;;4985044;28;20247;-42
2023/10/15 03:23:43;;;;;;;2.92;0.90;;;6.00;99.90;;;;;;5002288;28;20068;-41
2023/10/15 03:26:17;;;;;;;7.65;0.70;;;6.00;99.90;;;;;;4984716;28;20049;-41
2023/10/15 03:28:44;;;;;;;4.53;0.80;;;6.00;99.90;;;;;;5001650;28;20052;-42
2023/10/15 03:31:14;;;;;;;2.38;0.80;;;6.00;99.90;;;;;;5002045;28;20498;-42
2023/10/15 03:33:41;;;;;;;2.75;0.80;;;6.00;99.90;;;;;;4984265;28;20072;-41
2023/10/15 03:36:12;;;;;;;3.30;0.70;;;6.00;99.90;;;;;;4984381;28;20541;-41
2023/10/15 03:38:38;;;;;;;3.53;0.70;;;6.00;99.90;;;;;;4977170;28;20041;-41
2023/10/15 03:41:21;;;;;;;5.38;0.80;;;5.90;99.90;;;;;;5002114;28;20829;-41
2023/10/15 03:43:50;;;;;;;3.90;0.90;;;6.00;99.90;;;;;;5002404;28;20144;-40
2023/10/15 03:46:19;;;;;;;2.60;0.68;;;6.00;99.90;;;;;;5002166;28;20049;-41
2023/10/15 03:48:48;;;;;;;3.92;0.70;;;6.00;99.90;;;;;;5001673;28;20053;-42
2023/10/15 03:51:20;;;;;;;4.30;0.90;;;6.10;99.90;;;;;;4984140;28;20050;-41
2023/10/15 03:53:49;;;;;;;3.97;0.70;;;6.00;99.90;;;;;;5002053;28;20571;-43
2023/10/15 03:56:19;;;;;;;3.35;0.90;;;6.10;99.90;;;;;;4984138;28;20073;-41
2023/10/15 03:58:51;;;;;;;6.00;1.25;;;6.10;99.90;;;;;;5001709;28;20358;-43
2023/10/15 04:01:17;;;;;;;3.65;1.20;;;6.10;99.90;;;;;;5001325;28;20548;-43
2023/10/15 04:03:47;;;;;;;6.20;0.80;;;6.10;99.90;;;;;;5001326;28;20104;-41
2023/10/15 04:06:13;;;;;;;3.97;1.13;;;6.10;99.90;;;;;;5001849;28;20112;-43
2023/10/15 04:08:39;;;;;;;3.15;0.98;;;6.10;99.90;;;;;;5001185;28;20052;-41
2023/10/15 04:11:08;;;;;;;4.88;1.38;;;6.20;99.90;;;;;;4983239;28;20045;-41
2023/10/15 04:13:35;;;;;;;3.28;0.90;;;6.20;99.90;;;;;;4983206;28;20182;-42
2023/10/15 04:16:01;;;;;;;9.48;1.20;;;6.20;99.90;;;;;;5001382;28;20041;-42
2023/10/15 04:18:27;;;;;;;8.05;1.23;;;6.30;99.90;;;;;;5000890;28;20042;-42
2023/10/15 04:20:56;;;;;;;2.90;1.00;;;6.30;99.90;;;;;;5001031;28;20056;-41
2023/10/15 04:23:31;;;;;;;5.10;1.00;;;6.40;99.90;;;;;;4983935;28;20046;-41
2023/10/15 04:26:07;;;;;;;4.30;1.15;;;6.40;99.90;;;;;;5001343;28;20044;-42
2023/10/15 04:28:34;;;;;;;11.25;1.50;;;6.50;99.90;;;;;;5000819;28;20105;-41
2023/10/15 04:31:00;;;;;;;5.53;1.13;;;6.50;99.90;;;;;;5000778;28;20045;-42
2023/10/15 04:33:29;;;;;;;4.18;1.15;;;6.50;99.90;;;;;;5001141;28;20100;-41
2023/10/15 04:35:57;;;;;;;7.57;1.15;;;6.60;99.90;;;;;;4984168;28;20045;-47
2023/10/15 04:38:28;;;;;;;8.95;1.70;;;6.60;99.90;;;;;;4995967;28;20038;-42
2023/10/15 04:43:26;;;;;;;9.60;1.10;;;6.60;99.90;;;;;;5001001;28;20042;-41
2023/10/15 04:45:54;;;;;;;6.85;1.00;;;6.60;99.90;;;;;;5000555;28;20092;-43
2023/10/15 04:48:26;;;;;;;6.72;1.30;;;6.60;99.90;;;;;;4966917;28;20137;-41
2023/10/15 04:50:52;;;;;;;4.80;1.20;;;6.60;99.90;;;;;;5000880;28;20525;-42
2023/10/15 04:55:49;;;;;;;9.75;1.08;;;6.50;99.90;;;;;;4983292;28;20057;-42
2023/10/15 04:58:15;;;;;;;6.40;1.00;;;6.50;99.90;;;;;;5000611;28;20042;-41
2023/10/15 05:00:47;;;;;;;4.97;1.08;;;6.50;99.90;;;;;;4998864;28;20515;-43
2023/10/15 05:03:14;;;;;;;3.80;1.13;;;6.50;99.90;;;;;;5001024;28;20496;-41
2023/10/15 05:05:42;;;;;;;4.85;0.82;;;6.40;99.90;;;;;;4983394;28;20304;-41
2023/10/15 05:08:17;;;;;;;3.92;1.40;;;6.40;99.90;;;;;;5000951;28;20056;-42
2023/10/15 05:10:45;;;;;;;3.78;1.40;;;6.40;99.90;;;;;;4966509;28;20634;-41
2023/10/15 05:13:14;;;;;;;3.60;1.00;;;6.30;99.90;;;;;;4982898;28;20050;-42
2023/10/15 05:15:42;;;;;;;3.55;1.10;;;6.30;99.90;;;;;;4982585;28;20061;-42
2023/10/15 05:18:08;;;;;;;6.03;0.90;;;6.40;99.90;;;;;;4982337;28;20524;-42
2023/10/15 05:20:36;;;;;;;1.95;0.70;;;6.40;99.90;;;;;;4981947;28;20042;-41
2023/10/15 05:23:02;;;;;;;3.25;0.77;;;6.30;99.90;;;;;;5000037;28;20222;-42
2023/10/15 05:25:28;;;;;;;4.70;0.90;;;6.40;99.90;;;;;;5000491;28;20052;-41
2023/10/15 05:27:53;;;;;;;5.40;0.80;;;6.40;99.90;;;;;;5000301;28;20456;-41
2023/10/15 05:30:19;;;;;;;3.58;1.00;;;6.40;99.90;;;;;;4966003;28;20361;-41
2023/10/15 05:32:48;;;;;;;7.35;0.90;;;6.40;99.90;;;;;;5000340;28;20144;-42
2023/10/15 05:35:17;;;;;;;4.47;0.98;;;6.40;99.90;;;;;;5000605;28;20046;-41
2023/10/15 05:37:44;;;;;;;3.95;0.93;;;6.40;99.90;;;;;;4993512;28;20401;-41
2023/10/15 05:40:12;;;;;;;3.97;0.90;;;6.40;99.90;;;;;;4999284;28;20101;-43
2023/10/15 05:42:38;;;;;;;6.13;1.05;;;6.40;99.90;;;;;;4999028;28;20088;-42
2023/10/15 05:45:07;;;;;;;5.50;1.13;;;6.30;99.90;;;;;;5000147;28;20117;-44
2023/10/15 05:47:34;;;;;;;5.68;0.82;;;6.30;99.90;;;;;;4982258;28;20054;-43
2023/10/15 05:50:00;;;;;;;4.15;0.98;;;6.30;99.90;;;;;;4974231;28;20388;-42
2023/10/15 05:52:26;;;;;;;6.88;1.13;;;6.30;99.90;;;;;;5000000;28;20049;-42
2023/10/15 05:54:53;;;;;;;3.53;1.17;;;6.30;99.90;;;;;;4986579;28;20034;-42
2023/10/15 05:57:22;;;;;;;6.90;1.30;;;6.20;99.90;;;;;;4999551;28;20041;-43
2023/10/15 05:59:49;;;;;;;2.95;1.20;;;6.20;99.90;;;;;;4999227;28;20598;-43
2023/10/15 06:02:14;;;;;;;2.65;0.65;;;6.30;99.90;;;;;;4981942;28;20041;-43
2023/10/15 06:04:42;;;;;;;3.95;0.77;;;6.30;99.90;;;;;;4982133;28;20038;-43
2023/10/15 06:07:08;;;;;;;2.35;0.70;;;6.30;99.90;;;;;;4998904;28;20532;-44
2023/10/15 06:09:37;;;;;;;6.38;0.70;;;6.40;99.90;;;;;;4999931;28;20099;-44
2023/10/15 06:12:04;;;;;;;3.92;1.05;;;6.40;99.90;;;;;;4981845;28;20556;-42
2023/10/15 06:14:30;;;;;;;4.25;0.70;;;6.40;99.90;;;;;;4999986;28;20046;-42
2023/10/15 06:16:59;;;;;;;4.38;0.80;;;6.40;99.90;;;;;;4999699;28;20046;-42
2023/10/15 06:19:30;;;;;;;5.40;0.98;;;6.40;99.90;;;;;;4999593;28;20121;-43
2023/10/15 06:21:56;;;;;;;1.80;0.60;;;6.40;99.90;;;;;;4982423;28;20052;-42
2023/10/15 06:24:23;;;;;;;3.85;0.73;;;6.40;99.90;;;;;;4982014;28;20046;-42
2023/10/15 06:26:49;;;;;;;4.22;1.00;;;6.40;99.90;;;;;;4981757;28;20361;-42
2023/10/15 06:29:15;;;;;;;4.50;0.82;;;6.40;99.90;;;;;;4998885;28;20567;-42
2023/10/15 06:31:41;;;;;;;2.90;1.13;;;6.40;99.90;;;;;;4999936;28;20069;-41
2023/10/15 06:34:07;;;;;;;7.63;1.20;;;6.30;99.90;;;;;;4999850;28;20046;-41
2023/10/15 06:36:33;;;;;;;7.22;1.13;;;6.40;99.90;;;;;;4999153;28;20053;-45
2023/10/15 06:39:00;;;;;;;7.68;1.25;;;6.40;99.90;;;;;;4973745;28;20400;-42
2023/10/15 06:41:28;;;;;;;5.00;1.10;;;6.40;99.90;;;;;;4981466;28;20045;-41
2023/10/15 06:43:54;;;;;;;4.38;0.80;;;6.40;99.90;;;;;;4999412;28;20108;-43
2023/10/15 06:46:23;;;;;;;5.30;1.00;;;6.40;99.90;;;;;;4998492;28;20613;-42
2023/10/15 06:48:48;;;;;;;6.90;1.20;;;6.40;99.90;;;;;;4981179;28;20046;-42
2023/10/15 06:51:17;;;;;;;6.38;2.60;;;6.50;99.90;;;;;;4999322;28;20108;-42
2023/10/15 06:53:43;;;;;;;4.95;2.22;;;6.50;99.90;;;;;;4981334;28;20124;-41
2023/10/15 06:56:09;;;;;;;5.18;1.50;;;6.50;99.90;;;;;;4994182;28;20457;-42
2023/10/15 06:58:35;;;;;;;9.50;2.60;;;6.50;99.90;;;;;;4973386;28;20419;-43
2023/10/15 07:01:07;;;;;;;11.68;3.15;;;6.60;99.90;;;;;;4999557;28;20143;-45
2023/10/15 07:03:33;;;;;;;6.60;2.03;;;6.60;99.90;;;;;;5000680;28;20563;-43
2023/10/15 07:05:59;;;;;;;6.15;2.28;;;6.60;99.90;;;;;;5003280;28;20144;-42
2023/10/15 07:08:25;;;;;;;6.95;1.58;;;6.70;99.90;;;;;;4985265;28;20044;-43
2023/10/15 07:10:50;;;;;;;12.65;2.50;;;6.70;99.90;;;;;;5002146;28;20127;-43
2023/10/15 07:13:18;;;;;;;8.68;1.48;;;6.80;99.90;;;;;;4969232;28;20561;-41
2023/10/15 07:15:45;;;;;;;9.93;1.83;;;6.80;99.90;;;;;;5002578;28;20046;-42
2023/10/15 07:18:12;;;;;;;11.40;1.52;;;6.90;99.90;;;;;;4984452;28;20133;-44
2023/10/15 07:20:38;;;;;;;12.70;1.83;;;7.00;99.90;;;;;;5002383;28;20029;-43
2023/10/15 07:23:03;;;;;;;16.52;2.45;;;7.20;99.90;;;;;;5002564;28;20061;-46
2023/10/15 07:25:29;;;;;;;12.15;2.10;;;7.30;99.90;;;;;;5002987;28;20037;-41
2023/10/15 07:27:57;;;;;;;10.10;1.83;;;7.50;99.90;;;;;;4973384;28;20047;-42
2023/10/15 07:30:23;;;;;;;14.57;2.65;;;7.80;99.90;;;;;;5003769;28;20168;-42
2023/10/15 07:32:53;;;;;;;12.32;1.73;;;7.90;99.90;;;;;;4985226;28;20038;-43
2023/10/15 07:35:21;;;;;;;11.25;2.42;;;8.00;99.90;;;;;;5002607;28;20042;-44
2023/10/15 07:37:51;;;;;;;14.55;2.08;;;8.10;99.90;;;;;;4995040;28;20059;-41
2023/10/15 07:40:18;;;;;;;13.57;2.28;;;8.40;99.90;;;;;;4988468;28;20165;-41
2023/10/15 07:42:45;;;;;;;9.48;2.30;;;8.60;99.90;;;;;;5003183;28;20067;-41
2023/10/15 07:45:12;;;;;;;8.93;1.55;;;8.80;99.90;;;;;;4968907;28;20042;-44
2023/10/15 07:47:38;;;;;;;6.20;1.60;;;8.90;99.90;;;;;;5001892;28;20042;-45
2023/10/15 07:50:07;;;;;;;11.63;2.20;;;9.00;99.90;;;;;;5002058;28;20124;-42
2023/10/15 07:52:33;;;;;;;9.18;1.42;;;9.00;99.90;;;;;;5002225;28;20501;-42
2023/10/15 07:54:59;;;;;;;8.02;1.98;;;9.10;99.90;;;;;;5001996;28;20515;-41
2023/10/15 07:57:26;;;;;;;10.65;1.58;;;9.20;99.90;;;;;;5001694;28;20041;-43
2023/10/15 07:59:54;;;;;;;9.45;2.05;;;9.30;99.90;;;;;;5001768;28;20052;-44
2023/10/15 08:02:21;;;;;;;9.52;2.10;;;9.20;99.90;;;;;;5001549;28;20484;-42
2023/10/15 08:04:47;;;;;;;8.70;1.80;;;9.30;99.90;;;;;;4983726;28;20114;-42
2023/10/15 08:07:13;;;;;;;10.70;2.00;;;9.40;99.90;;;;;;4983530;28;20049;-44
2023/10/15 08:09:39;;;;;;;8.02;1.65;;;9.50;99.90;;;;;;5001978;28;20800;-43
2023/10/15 08:12:05;;;;;;;9.30;1.80;;;9.70;99.90;;;;;;4983888;28;20056;-42
2023/10/15 08:14:30;;;;;;;9.98;1.80;;;9.70;99.90;;;;;;5001274;28;20050;-43
2023/10/15 08:16:56;;;;;;;5.07;1.50;;;10.00;99.90;;;;;;4983600;28;20231;-43
2023/10/15 08:19:22;;;;;;;11.00;2.10;;;10.10;99.90;;;;;;4983569;28;20060;-41
2023/10/15 08:21:47;;;;;;;10.23;1.58;;;10.00;99.90;;;;;;5002186;28;20034;-45
2023/10/15 08:24:15;;;;;;;11.45;1.90;;;10.10;99.90;;;;;;5000106;28;20449;-42
2023/10/15 08:26:41;;;;;;;3.17;0.90;;;10.10;99.90;;;;;;4967538;28;20072;-44
2023/10/15 08:29:09;;;;;;;3.92;1.20;;;10.00;99.90;;;;;;5001153;28;20045;-41
2023/10/15 08:31:35;;;;;;;5.13;1.10;;;9.70;99.90;;;;;;5009463;28;20045;-41
2023/10/15 08:34:01;;;;;;;3.80;0.85;;;9.70;99.90;;;;;;5014376;28;20148;-43
2023/10/15 08:36:27;;;;;;;2.03;0.63;;;9.60;99.90;;;;;;4995813;28;20448;-43
2023/10/15 08:38:52;;;;;;;2.35;0.77;;;9.50;99.90;;;;;;4976118;28;20048;-45
2023/10/15 08:41:23;;;;;;;3.78;0.95;;;9.30;99.90;;;;;;4989575;28;20595;-43
2023/10/15 08:43:51;;;;;;;3.60;1.10;;;9.20;99.90;;;;;;4997597;28;20049;-41
2023/10/15 08:46:22;;;;;;;4.70;1.15;;;9.00;99.90;;;;;;5004215;28;20500;-42
2023/10/15 08:48:49;;;;;;;4.90;1.25;;;8.90;99.90;;;;;;5001082;28;20149;-41
2023/10/15 08:51:21;;;;;;;4.70;1.55;;;8.90;99.90;;;;;;5001700;28;20444;-43
2023/10/15 08:53:50;;;;;;;3.95;1.08;;;8.80;99.90;;;;;;4999864;28;20556;-45
2023/10/15 08:56:21;;;;;;;3.28;1.00;;;8.90;99.90;;;;;;4983025;28;20050;-41
2023/10/15 08:58:56;;;;;;;4.30;1.08;;;9.00;99.90;;;;;;5001285;28;20069;-41
2023/10/15 09:01:22;;;;;;;5.32;1.52;;;9.00;99.90;;;;;;5001592;28;20051;-44
2023/10/15 09:03:48;;;;;;;3.60;0.85;;;9.10;99.90;;;;;;4983217;28;20081;-42
2023/10/15 09:06:16;;;;;;;7.88;1.40;;;9.30;99.90;;;;;;5000756;28;20125;-44
2023/10/15 09:08:42;;;;;;;4.38;1.05;;;9.50;99.90;;;;;;4982595;28;20951;-43
2023/10/15 09:11:08;;;;;;;7.45;1.42;;;9.60;99.90;;;;;;4983323;28;20046;-44
2023/10/15 09:13:36;;;;;;;5.43;1.40;;;9.70;99.90;;;;;;4983322;28;20056;-41
2023/10/15 09:16:04;;;;;;;9.20;1.65;;;9.70;99.90;;;;;;5000676;28;20574;-42
2023/10/15 09:18:35;;;;;;;6.00;1.50;;;9.60;99.90;;;;;;4982703;28;20460;-43
2023/10/15 09:21:04;;;;;;;6.85;1.48;;;9.40;99.90;;;;;;5000694;28;20112;-42
2023/10/15 09:23:37;;;;;;;7.07;1.73;;;9.20;99.90;;;;;;5000876;28;20092;-42
2023/10/15 09:26:07;;;;;;;7.40;1.60;;;9.10;99.90;;;;;;4982196;28;20045;-44
2023/10/15 09:28:36;;;;;;;8.55;2.03;;;9.00;99.90;;;;;;4982337;28;20044;-42
2023/10/15 09:31:06;;;;;;;5.43;1.50;;;8.80;99.90;;;;;;5001071;28;20091;-43
2023/10/15 09:33:33;;;;;;;7.53;2.00;;;8.80;99.90;;;;;;4999553;28;20572;-41
2023/10/15 09:35:59;;;;;;;11.57;1.95;;;8.80;99.90;;;;;;4998314;28;20073;-41
2023/10/15 09:38:25;;;;;;;8.73;1.65;;;9.00;99.90;;;;;;4978968;28;20046;-41
2023/10/15 09:40:56;;;;;;;11.80;2.00;;;9.30;99.90;;;;;;5000156;28;20050;-42
2023/10/15 09:43:24;;;;;;;11.23;2.20;;;9.50;99.90;;;;;;5000056;28;20050;-43
2023/10/15 09:45:54;;;;;;;8.68;1.67;;;9.70;99.90;;;;;;4981935;28;20056;-41
2023/10/15 09:48:24;;;;;;;5.45;1.40;;;9.90;99.90;;;;;;4999661;28;20041;-45
2023/10/15 09:50:52;;;;;;;9.70;2.00;;;10.00;99.90;;;;;;4999562;28;20508;-43
2023/10/15 09:53:21;;;;;;;15.55;2.40;;;10.10;99.90;;;;;;4999054;28;20564;-44
2023/10/15 09:55:48;;;;;;;10.18;2.00;;;10.30;99.90;;;;;;4980827;28;20053;-43
2023/10/15 09:58:15;;;;;;;9.27;1.88;;;10.40;99.90;;;;;;4981561;28;20044;-45
2023/10/15 10:03:59;;;;;;;8.88;1.92;;;10.60;99.90;;;;;;4969945;28;20583;-42
2023/10/15 10:06:55;;;;;;;13.40;2.58;;;10.80;99.90;;;;;;4999182;28;20045;-41
2023/10/15 10:09:28;;;;;;;10.52;2.20;;;10.90;99.90;;;;;;4997509;28;20049;-44
2023/10/15 10:12:26;;;;;;;12.30;2.20;;;11.00;99.90;;;;;;4996991;28;20050;-42
2023/10/15 10:15:16;;;;;;;5.97;1.77;;;11.10;99.90;;;;;;4997439;28;20052;-43
2023/10/15 10:17:43;;;;;;;13.55;3.33;;;11.20;99.90;;;;;;4997901;28;20042;-46
2023/10/15 10:20:12;;;;;;;5.72;1.35;;;11.20;99.90;;;;;;4965629;28;20046;-41
2023/10/15 10:22:39;;;;;;;13.15;2.35;;;11.00;99.90;;;;;;4999627;28;20046;-44
2023/10/15 10:25:07;;;;;;;6.72;1.42;;;10.70;99.90;;;;;;4999704;28;20125;-43
2023/10/15 10:27:42;;;;;;;11.93;2.10;;;10.60;99.90;;;;;;4996299;28;20125;-42
2023/10/15 10:30:28;;;;;;;8.35;1.73;;;10.50;99.90;;;;;;4985875;28;20540;-42
2023/10/15 10:33:00;;;;;;;5.28;1.40;;;10.70;99.90;;;;;;5006332;28;20294;-41
2023/10/15 10:35:27;;;;;;;;;;;10.90;99.90;;;;;;4999434;28;20061;-41
2023/10/15 10:38:07;;;;;;;5.03;1.10;;;11.10;99.90;;;;;;4990959;28;19925;-41
2023/10/15 10:40:51;;;;;;;4.07;1.00;;;11.10;99.90;;;;;;5000887;28;20433;-42
2023/10/15 10:43:19;;;;;;;6.70;1.13;;;11.10;99.90;;;;;;5002623;28;20088;-42
2023/10/15 10:45:56;;;;;;;5.25;1.20;;;11.20;99.90;;;;;;5002624;28;20409;-42
2023/10/15 10:48:23;;;;;;;3.05;0.80;;;11.20;99.90;;;;;;5001062;28;20050;-43
2023/10/15 10:51:18;;;;;;;5.18;1.27;;;11.20;99.90;;;;;;5003066;28;20042;-43
2023/10/15 10:53:57;;;;;;;3.72;1.48;;;11.10;99.90;;;;;;5000516;28;20115;-43
2023/10/15 10:56:25;;;;;;;3.17;1.00;;;10.80;99.90;;;;;;4998293;28;20046;-42
2023/10/15 10:58:57;;;;;;;4.85;1.10;;;10.60;99.90;;;;;;5002281;28;20061;-42
2023/10/15 11:01:23;;;;;;;4.40;1.30;;;10.40;99.90;;;;;;4999573;28;20046;-42
2023/10/15 11:03:52;;;;;;;7.55;1.48;;;10.20;99.90;;;;;;5003081;28;20065;-41
2023/10/15 11:06:18;;;;;;;5.78;1.50;;;10.10;99.90;;;;;;5010768;28;20092;-42
2023/10/15 11:08:47;;;;;;;4.70;1.27;;;10.10;99.90;;;;;;5002331;28;20038;-44
2023/10/15 11:11:13;;;;;;;10.23;1.20;;;10.30;99.90;;;;;;4985070;28;20563;-44
2023/10/15 11:13:39;;;;;;;8.10;1.63;;;10.50;99.90;;;;;;4984537;28;20045;-43
2023/10/15 11:16:05;;;;;;;9.40;1.60;;;10.70;99.90;;;;;;5002137;28;20096;-41
2023/10/15 11:18:31;;;;;;;8.10;1.40;;;10.80;99.90;;;;;;4983317;28;20049;-42
2023/10/15 11:20:57;;;;;;;4.50;1.25;;;10.90;99.90;;;;;;4982999;28;20053;-44
2023/10/15 11:23:23;;;;;;;7.03;1.90;;;10.90;99.90;;;;;;5001268;28;20034;-44
2023/10/15 11:25:51;;;;;;;3.95;1.48;;;10.90;99.90;;;;;;5001501;28;20044;-42
2023/10/15 11:28:18;;;;;;;7.88;1.38;;;10.70;99.90;;;;;;5002009;28;20424;-42
2023/10/15 11:30:45;;;;;;;5.65;1.27;;;10.70;99.90;;;;;;4967993;28;20128;-44
2023/10/15 11:33:12;;;;;;;6.60;1.40;;;10.70;99.90;;;;;;5001844;28;20041;-42
2023/10/15 11:35:38;;;;;;;4.85;1.17;;;10.60;99.90;;;;;;4983750;28;20096;-41
2023/10/15 11:38:11;;;;;;;7.70;1.65;;;10.60;99.90;;;;;;4976469;28;20046;-42
2023/10/15 11:40:40;;;;;;;4.80;1.37;;;10.60;99.90;;;;;;4984143;28;20460;-42
2023/10/15 11:43:12;;;;;;;13.50;3.42;;;10.60;99.90;;;;;;4984548;28;20041;-43
2023/10/15 11:45:39;;;;;;;3.53;1.10;;;10.60;99.90;;;;;;5001263;28;20560;-45
2023/10/15 11:48:11;;;;;;;4.07;1.00;;;10.50;99.90;;;;;;4983958;28;20053;-43
2023/10/15 11:50:40;;;;;;;6.85;1.30;;;10.50;99.90;;;;;;4983488;28;20045;-43
2023/10/15 11:53:16;;;;;;;6.85;1.73;;;10.50;99.90;;;;;;4988403;28;20080;-42
2023/10/15 11:55:52;;;;;;;5.50;1.40;;;10.40;99.90;;;;;;5000710;28;20037;-43
2023/10/15 11:58:27;;;;;;;5.93;1.30;;;10.50;99.90;;;;;;4999313;28;20509;-43
2023/10/15 12:00:56;;;;;;;6.78;1.67;;;10.60;99.90;;;;;;4983332;28;20131;-41
2023/10/15 12:03:21;;;;;;;6.60;1.40;;;10.70;99.90;;;;;;5000904;28;20069;-42
2023/10/15 12:05:49;;;;;;;6.45;1.33;;;10.70;99.90;;;;;;5000595;28;20545;-43
2023/10/15 12:08:16;;;;;;;6.18;1.77;;;10.80;99.90;;;;;;5001081;28;20049;-44
2023/10/15 12:10:45;;;;;;;5.03;1.00;;;10.90;99.90;;;;;;4983413;28;20103;-43
2023/10/15 12:13:12;;;;;;;5.60;1.42;;;11.00;99.90;;;;;;5001045;28;20131;-43
2023/10/15 12:15:38;;;;;;;7.05;1.15;;;11.30;99.90;;;;;;5000167;28;20441;-44
2023/10/15 12:18:04;;;;;;;6.15;1.60;;;11.50;99.90;;;;;;4978040;28;20111;-42
2023/10/15 12:20:30;;;;;;;7.40;1.33;;;11.50;99.90;;;;;;4976412;28;20038;-43
2023/10/15 12:22:56;;;;;;;6.95;1.60;;;11.50;99.90;;;;;;4977096;28;20056;-42
2023/10/15 12:25:22;;;;;;;6.22;1.23;;;11.20;99.90;;;;;;4977600;28;20456;-42
2023/10/15 12:27:48;;;;;;;11.23;1.80;;;11.10;99.90;;;;;;4998844;28;20052;-43
2023/10/15 12:30:23;;;;;;;8.05;1.70;;;11.00;99.90;;;;;;4996335;28;20050;-43
2023/10/15 12:32:53;;;;;;;8.98;1.50;;;10.90;99.90;;;;;;5000871;28;21434;-42
2023/10/15 12:35:20;;;;;;;8.70;1.50;;;10.90;99.90;;;;;;4979257;28;20053;-45
2023/10/15 12:37:46;;;;;;;7.35;1.95;;;10.90;99.90;;;;;;4989818;28;20088;-44
2023/10/15 12:40:12;;;;;;;7.95;1.50;;;11.00;99.90;;;;;;4986246;28;20073;-43
2023/10/15 12:42:41;;;;;;;6.25;1.35;;;11.00;99.90;;;;;;4999251;28;20038;-43
2023/10/15 12:45:10;;;;;;;7.85;1.60;;;11.00;99.90;;;;;;4999714;28;20048;-45
2023/10/15 12:47:37;;;;;;;8.30;1.38;;;11.10;99.90;;;;;;4965483;28;20464;-43
2023/10/15 12:50:04;;;;;;;7.82;1.30;;;11.10;99.90;;;;;;4981584;28;20335;-43
2023/10/15 12:52:31;;;;;;;7.68;1.33;;;11.20;99.90;;;;;;4981558;28;20049;-42
2023/10/15 12:54:58;;;;;;;4.82;1.42;;;11.30;99.90;;;;;;4981473;28;20408;-43
2023/10/15 12:57:24;;;;;;;11.20;1.55;;;11.60;99.90;;;;;;4998676;28;20053;-43
2023/10/15 12:59:50;;;;;;;10.45;1.92;;;11.70;99.90;;;;;;4998525;28;20050;-43
2023/10/15 13:02:17;;;;;;;5.15;1.80;;;11.80;99.90;;;;;;4998377;28;20297;-43
2023/10/15 13:04:43;;;;;;;17.10;1.50;;;11.90;99.90;;;;;;5000178;28;20484;-44
2023/10/15 13:07:10;;;;;;;5.03;0.90;;;11.90;99.90;;;;;;4999829;28;20086;-43
2023/10/15 13:09:38;;;;;;;5.15;1.10;;;11.80;99.90;;;;;;4999561;28;20512;-45
2023/10/15 13:12:06;;;;;;;5.30;1.20;;;11.70;99.90;;;;;;4999567;28;20228;-44
2023/10/15 13:14:33;;;;;;;4.28;1.17;;;11.60;99.90;;;;;;4999664;28;20417;-42
2023/10/15 13:16:59;;;;;;;4.13;1.00;;;11.50;99.90;;;;;;4998922;28;20053;-44
2023/10/15 13:19:26;;;;;;;2.40;1.13;;;11.50;99.90;;;;;;4998774;28;20042;-46
2023/10/15 13:21:52;;;;;;;5.45;1.23;;;11.40;99.90;;;;;;4981910;28;20044;-43
2023/10/15 13:24:17;;;;;;;6.78;1.63;;;11.30;99.90;;;;;;4999613;28;20368;-42
2023/10/15 13:26:45;;;;;;;11.43;2.00;;;11.40;99.90;;;;;;4999134;28;20077;-44
2023/10/15 13:29:11;;;;;;;12.57;2.22;;;11.60;99.90;;;;;;4998979;28;20441;-45
2023/10/15 13:31:37;;;;;;;8.95;1.50;;;11.80;99.90;;;;;;4999648;28;20052;-44